sensor_id;sensor_type;location;lat;lon;timestamp;pressure;altitude;pressure_sealevel;temperature;humidity
78675;BME280;67990;59.826;30.108;2023-06-19T00:01:52;102112.75;;;9.52;71.43
78675;BME280;67990;59.826;30.108;2023-06-19T00:04:37;102103.47;;;9.46;71.63
78675;BME280;67990;59.826;30.108;2023-06-19T00:07:05;102107.31;;;9.41;71.27
78675;BME280;67990;59.826;30.108;2023-06-19T00:12:17;102114.63;;;9.36;71.61
78675;BME280;67990;59.826;30.108;2023-06-19T00:14:44;102113.03;;;9.33;72.04
78675;BME280;67990;59.826;30.108;2023-06-19T00:17:11;102102.72;;;9.30;71.70
78675;BME280;67990;59.826;30.108;2023-06-19T00:19:43;102111.63;;;9.28;72.23
78675;BME280;67990;59.826;30.108;2023-06-19T00:22:11;102102.06;;;9.27;72.35
78675;BME280;67990;59.826;30.108;2023-06-19T00:24:38;102098.97;;;9.20;72.50
78675;BME280;67990;59.826;30.108;2023-06-19T00:27:05;102097.38;;;9.18;72.69
78675;BME280;67990;59.826;30.108;2023-06-19T00:29:51;102095.75;;;9.15;72.46
78675;BME280;67990;59.826;30.108;2023-06-19T00:32:18;102097.91;;;9.09;72.89
78675;BME280;67990;59.826;30.108;2023-06-19T00:34:47;102091.94;;;9.07;72.77
78675;BME280;67990;59.826;30.108;2023-06-19T00:37:33;102093.53;;;9.09;72.65
78675;BME280;67990;59.826;30.108;2023-06-19T00:40:00;102099.16;;;9.03;72.80
78675;BME280;67990;59.826;30.108;2023-06-19T00:42:27;102097.44;;;9.02;73.50
78675;BME280;67990;59.826;30.108;2023-06-19T00:44:55;102089.66;;;9.01;73.08
78675;BME280;67990;59.826;30.108;2023-06-19T00:47:22;102100.81;;;9.04;73.55
78675;BME280;67990;59.826;30.108;2023-06-19T00:49:56;102102.34;;;9.08;73.72
78675;BME280;67990;59.826;30.108;2023-06-19T00:52:41;102097.81;;;9.10;73.22
78675;BME280;67990;59.826;30.108;2023-06-19T00:55:08;102099.63;;;9.10;73.59
78675;BME280;67990;59.826;30.108;2023-06-19T00:57:36;102097.81;;;9.10;73.39
78675;BME280;67990;59.826;30.108;2023-06-19T01:00:06;102108.31;;;9.10;73.39
78675;BME280;67990;59.826;30.108;2023-06-19T01:02:34;102105.22;;;9.04;73.57
78675;BME280;67990;59.826;30.108;2023-06-19T01:05:02;102101.84;;;9.02;73.31
78675;BME280;67990;59.826;30.108;2023-06-19T01:07:36;102099.16;;;9.03;73.87
78675;BME280;67990;59.826;30.108;2023-06-19T01:10:09;102104.19;;;9.06;73.77
78675;BME280;67990;59.826;30.108;2023-06-19T01:12:42;102109.44;;;9.06;74.07
78675;BME280;67990;59.826;30.108;2023-06-19T01:15:16;102102.41;;;9.07;73.84
78675;BME280;67990;59.826;30.108;2023-06-19T01:17:45;102104.94;;;9.08;74.10
78675;BME280;67990;59.826;30.108;2023-06-19T01:20:15;102106.53;;;9.11;73.70
78675;BME280;67990;59.826;30.108;2023-06-19T01:22:45;102109.91;;;9.13;73.77
78675;BME280;67990;59.826;30.108;2023-06-19T01:25:12;102120.31;;;9.14;73.69
78675;BME280;67990;59.826;30.108;2023-06-19T01:27:41;102117.50;;;9.17;74.20
78675;BME280;67990;59.826;30.108;2023-06-19T01:30:10;102109.25;;;9.23;74.05
78675;BME280;67990;59.826;30.108;2023-06-19T01:32:47;102115.91;;;9.29;74.27
78675;BME280;67990;59.826;30.108;2023-06-19T01:35:36;102111.16;;;9.35;74.39
78675;BME280;67990;59.826;30.108;2023-06-19T01:38:24;102105.91;;;9.35;73.87
78675;BME280;67990;59.826;30.108;2023-06-19T01:40:54;102103.00;;;9.40;73.78
78675;BME280;67990;59.826;30.108;2023-06-19T01:43:23;102108.91;;;9.43;74.28
78675;BME280;67990;59.826;30.108;2023-06-19T01:45:51;102107.69;;;9.49;74.18
78675;BME280;67990;59.826;30.108;2023-06-19T01:48:18;102109.19;;;9.53;74.36
78675;BME280;67990;59.826;30.108;2023-06-19T01:51:06;102107.13;;;9.58;74.48
78675;BME280;67990;59.826;30.108;2023-06-19T01:53:34;102106.09;;;9.60;74.66
78675;BME280;67990;59.826;30.108;2023-06-19T01:56:02;102103.00;;;9.68;75.03
78675;BME280;67990;59.826;30.108;2023-06-19T01:58:29;102107.03;;;9.73;74.75
78675;BME280;67990;59.826;30.108;2023-06-19T02:00:57;102104.88;;;9.80;74.66
78675;BME280;67990;59.826;30.108;2023-06-19T02:04:00;102103.34;;;9.90;74.58
78675;BME280;67990;59.826;30.108;2023-06-19T02:06:30;102095.06;;;9.96;74.49
78675;BME280;67990;59.826;30.108;2023-06-19T02:08:58;102104.34;;;10.01;74.67
78675;BME280;67990;59.826;30.108;2023-06-19T02:11:25;102099.69;;;10.06;74.65
78675;BME280;67990;59.826;30.108;2023-06-19T02:13:54;102098.06;;;10.18;74.67
78675;BME280;67990;59.826;30.108;2023-06-19T02:16:21;102098.19;;;10.29;74.60
78675;BME280;67990;59.826;30.108;2023-06-19T02:18:48;102098.53;;;10.37;74.70
78675;BME280;67990;59.826;30.108;2023-06-19T02:24:03;102100.72;;;10.57;74.19
78675;BME280;67990;59.826;30.108;2023-06-19T02:26:30;102094.44;;;10.72;74.25
78675;BME280;67990;59.826;30.108;2023-06-19T02:29:15;102079.88;;;10.93;74.33
78675;BME280;67990;59.826;30.108;2023-06-19T02:31:44;102089.97;;;11.24;73.97
78675;BME280;67990;59.826;30.108;2023-06-19T02:34:29;102098.59;;;11.51;73.32
78675;BME280;67990;59.826;30.108;2023-06-19T02:36:56;102088.25;;;11.73;73.02
78675;BME280;67990;59.826;30.108;2023-06-19T02:39:42;102091.38;;;11.91;72.21
78675;BME280;67990;59.826;30.108;2023-06-19T02:42:09;102087.41;;;12.09;72.13
78675;BME280;67990;59.826;30.108;2023-06-19T02:44:54;102092.38;;;12.37;71.38
78675;BME280;67990;59.826;30.108;2023-06-19T02:47:28;102088.19;;;12.69;70.59
78675;BME280;67990;59.826;30.108;2023-06-19T02:49:56;102085.81;;;13.00;69.59
78675;BME280;67990;59.826;30.108;2023-06-19T02:52:23;102087.66;;;13.44;68.63
78675;BME280;67990;59.826;30.108;2023-06-19T02:57:37;102089.22;;;14.64;65.82
78675;BME280;67990;59.826;30.108;2023-06-19T03:00:23;102081.09;;;15.38;64.68
78675;BME280;67990;59.826;30.108;2023-06-19T03:02:50;102084.56;;;16.08;62.48
78675;BME280;67990;59.826;30.108;2023-06-19T03:05:17;102077.91;;;16.71;60.83
78675;BME280;67990;59.826;30.108;2023-06-19T03:07:44;102079.56;;;17.47;59.42
78675;BME280;67990;59.826;30.108;2023-06-19T03:10:13;102072.84;;;18.24;57.46
78675;BME280;67990;59.826;30.108;2023-06-19T03:12:41;102076.06;;;19.05;54.80
78675;BME280;67990;59.826;30.108;2023-06-19T03:15:27;102067.56;;;19.94;51.85
78675;BME280;67990;59.826;30.108;2023-06-19T03:18:11;102065.84;;;20.59;49.51
78675;BME280;67990;59.826;30.108;2023-06-19T03:20:39;102071.59;;;21.34;46.52
78675;BME280;67990;59.826;30.108;2023-06-19T03:28:59;102066.50;;;22.78;40.99
78675;BME280;67990;59.826;30.108;2023-06-19T03:34:19;102063.69;;;23.81;39.14
78675;BME280;67990;59.826;30.108;2023-06-19T03:36:47;102072.94;;;24.28;37.38
78675;BME280;67990;59.826;30.108;2023-06-19T03:39:14;102060.91;;;24.87;37.15
78675;BME280;67990;59.826;30.108;2023-06-19T03:41:44;102065.91;;;25.24;35.16
78675;BME280;67990;59.826;30.108;2023-06-19T03:44:29;102066.38;;;25.62;33.81
78675;BME280;67990;59.826;30.108;2023-06-19T03:46:56;102064.06;;;25.52;32.65
78675;BME280;67990;59.826;30.108;2023-06-19T03:49:42;102052.38;;;25.39;33.88
78675;BME280;67990;59.826;30.108;2023-06-19T03:52:28;102056.97;;;25.45;33.02
78675;BME280;67990;59.826;30.108;2023-06-19T03:55:12;102044.81;;;26.03;31.31
78675;BME280;67990;59.826;30.108;2023-06-19T03:57:41;102050.09;;;26.56;31.21
78675;BME280;67990;59.826;30.108;2023-06-19T04:00:08;102049.28;;;26.88;29.60
78675;BME280;67990;59.826;30.108;2023-06-19T04:02:39;102050.50;;;26.99;29.01
78675;BME280;67990;59.826;30.108;2023-06-19T04:05:06;102051.84;;;27.60;29.92
78675;BME280;67990;59.826;30.108;2023-06-19T04:07:34;102046.72;;;27.96;28.30
78675;BME280;67990;59.826;30.108;2023-06-19T04:10:02;102047.59;;;27.83;27.43
78675;BME280;67990;59.826;30.108;2023-06-19T04:12:29;102045.88;;;27.95;26.49
78675;BME280;67990;59.826;30.108;2023-06-19T04:14:58;102046.34;;;28.23;26.28
78675;BME280;67990;59.826;30.108;2023-06-19T04:17:25;102049.06;;;28.79;25.98
78675;BME280;67990;59.826;30.108;2023-06-19T04:19:52;102053.69;;;29.21;26.22
78675;BME280;67990;59.826;30.108;2023-06-19T04:22:19;102045.78;;;29.55;24.73
78675;BME280;67990;59.826;30.108;2023-06-19T04:24:46;102047.78;;;29.66;24.03
78675;BME280;67990;59.826;30.108;2023-06-19T04:27:14;102048.50;;;30.21;23.68
78675;BME280;67990;59.826;30.108;2023-06-19T04:30:01;102041.94;;;30.29;23.05
78675;BME280;67990;59.826;30.108;2023-06-19T04:32:30;102045.88;;;29.49;23.45
78675;BME280;67990;59.826;30.108;2023-06-19T04:34:57;102048.56;;;30.44;23.13
78675;BME280;67990;59.826;30.108;2023-06-19T04:37:24;102040.72;;;30.89;22.50
78675;BME280;67990;59.826;30.108;2023-06-19T04:39:51;102043.22;;;31.13;22.41
78675;BME280;67990;59.826;30.108;2023-06-19T04:42:37;102039.78;;;31.18;21.18
78675;BME280;67990;59.826;30.108;2023-06-19T04:45:07;102047.00;;;31.24;21.38
78675;BME280;67990;59.826;30.108;2023-06-19T04:47:53;102039.06;;;31.34;21.23
78675;BME280;67990;59.826;30.108;2023-06-19T04:50:38;102045.94;;;31.87;20.65
78675;BME280;67990;59.826;30.108;2023-06-19T04:53:05;102051.59;;;30.89;20.92
78675;BME280;67990;59.826;30.108;2023-06-19T04:55:32;102043.56;;;31.28;21.33
78675;BME280;67990;59.826;30.108;2023-06-19T04:57:59;102036.22;;;31.52;20.26
78675;BME280;67990;59.826;30.108;2023-06-19T05:00:28;102046.31;;;31.68;20.29
78675;BME280;67990;59.826;30.108;2023-06-19T05:02:55;102043.94;;;32.39;19.28
78675;BME280;67990;59.826;30.108;2023-06-19T05:05:26;102045.22;;;32.69;18.44
78675;BME280;67990;59.826;30.108;2023-06-19T05:07:53;102042.44;;;32.97;18.42
78675;BME280;67990;59.826;30.108;2023-06-19T05:15:53;102033.34;;;33.89;18.42
78675;BME280;67990;59.826;30.108;2023-06-19T05:18:21;102023.81;;;34.50;17.45
78675;BME280;67990;59.826;30.108;2023-06-19T05:20:49;102025.09;;;35.16;17.59
78675;BME280;67990;59.826;30.108;2023-06-19T05:23:16;102030.19;;;34.97;16.79
78675;BME280;67990;59.826;30.108;2023-06-19T05:25:43;102014.66;;;35.64;16.37
78675;BME280;67990;59.826;30.108;2023-06-19T05:28:11;102017.25;;;36.06;16.07
78675;BME280;67990;59.826;30.108;2023-06-19T05:30:38;102019.34;;;35.74;15.72
78675;BME280;67990;59.826;30.108;2023-06-19T05:33:06;102023.88;;;34.97;16.01
78675;BME280;67990;59.826;30.108;2023-06-19T05:35:34;102016.84;;;35.06;16.20
78675;BME280;67990;59.826;30.108;2023-06-19T05:38:01;102018.75;;;35.62;16.32
78675;BME280;67990;59.826;30.108;2023-06-19T05:40:28;102021.84;;;35.19;15.70
78675;BME280;67990;59.826;30.108;2023-06-19T05:42:55;102018.47;;;35.58;16.24
78675;BME280;67990;59.826;30.108;2023-06-19T05:45:41;102031.66;;;35.71;15.13
78675;BME280;67990;59.826;30.108;2023-06-19T05:48:09;102017.78;;;35.98;15.01
78675;BME280;67990;59.826;30.108;2023-06-19T05:53:59;102010.91;;;37.05;16.08
78675;BME280;67990;59.826;30.108;2023-06-19T05:56:29;102014.53;;;36.96;14.44
78675;BME280;67990;59.826;30.108;2023-06-19T05:58:58;102012.09;;;36.69;14.07
78675;BME280;67990;59.826;30.108;2023-06-19T06:01:26;102015.03;;;37.08;13.79
78675;BME280;67990;59.826;30.108;2023-06-19T06:04:13;102014.72;;;37.24;14.00
78675;BME280;67990;59.826;30.108;2023-06-19T06:06:40;102007.69;;;37.57;13.67
78675;BME280;67990;59.826;30.108;2023-06-19T06:09:07;102005.59;;;37.92;13.15
78675;BME280;67990;59.826;30.108;2023-06-19T06:11:36;102016.06;;;37.37;13.14
78675;BME280;67990;59.826;30.108;2023-06-19T06:17:26;102007.88;;;38.81;13.46
78675;BME280;67990;59.826;30.108;2023-06-19T06:19:54;102010.19;;;39.21;12.38
78675;BME280;67990;59.826;30.108;2023-06-19T06:22:21;102009.06;;;38.75;11.82
78675;BME280;67990;59.826;30.108;2023-06-19T06:24:49;102003.94;;;38.92;12.01
78675;BME280;67990;59.826;30.108;2023-06-19T06:27:16;102005.22;;;39.00;13.00
78675;BME280;67990;59.826;30.108;2023-06-19T06:33:05;102010.97;;;40.06;12.87
78675;BME280;67990;59.826;30.108;2023-06-19T06:35:33;102001.56;;;40.25;11.30
78675;BME280;67990;59.826;30.108;2023-06-19T06:38:01;101993.28;;;39.93;12.16
78675;BME280;67990;59.826;30.108;2023-06-19T06:40:28;102010.53;;;39.80;11.47
78675;BME280;67990;59.826;30.108;2023-06-19T06:43:13;102009.47;;;40.13;12.63
78675;BME280;67990;59.826;30.108;2023-06-19T06:45:40;102006.34;;;39.46;11.50
78675;BME280;67990;59.826;30.108;2023-06-19T06:48:24;102006.88;;;40.22;10.94
78675;BME280;67990;59.826;30.108;2023-06-19T06:56:42;101995.81;;;39.90;11.78
78675;BME280;67990;59.826;30.108;2023-06-19T06:59:14;101990.22;;;39.76;10.32
78675;BME280;67990;59.826;30.108;2023-06-19T07:02:18;101998.88;;;39.46;11.32
78675;BME280;67990;59.826;30.108;2023-06-19T07:04:45;101984.00;;;40.21;10.65
78675;BME280;67990;59.826;30.108;2023-06-19T07:07:13;101983.81;;;40.18;10.45
78675;BME280;67990;59.826;30.108;2023-06-19T07:09:59;101974.44;;;39.82;11.16
78675;BME280;67990;59.826;30.108;2023-06-19T07:12:26;101974.81;;;39.94;9.58
78675;BME280;67990;59.826;30.108;2023-06-19T07:14:53;101974.25;;;39.78;9.73
78675;BME280;67990;59.826;30.108;2023-06-19T07:17:39;101976.97;;;39.97;10.44
78675;BME280;67990;59.826;30.108;2023-06-19T07:20:25;101974.97;;;38.48;11.39
78675;BME280;67990;59.826;30.108;2023-06-19T07:25:39;101973.03;;;39.24;11.27
78675;BME280;67990;59.826;30.108;2023-06-19T07:28:06;101973.16;;;39.37;11.23
78675;BME280;67990;59.826;30.108;2023-06-19T07:30:52;101977.03;;;39.36;11.59
78675;BME280;67990;59.826;30.108;2023-06-19T07:42:30;101965.78;;;39.70;13.01
78675;BME280;67990;59.826;30.108;2023-06-19T07:45:17;101962.75;;;39.53;12.01
78675;BME280;67990;59.826;30.108;2023-06-19T07:48:21;101964.44;;;38.83;12.93
78675;BME280;67990;59.826;30.108;2023-06-19T07:53:34;101969.00;;;39.16;11.85
78675;BME280;67990;59.826;30.108;2023-06-19T07:56:21;101971.47;;;39.18;12.00
78675;BME280;67990;59.826;30.108;2023-06-19T07:58:48;101961.19;;;38.76;10.40
78675;BME280;67990;59.826;30.108;2023-06-19T08:01:15;101966.81;;;38.90;11.81
78675;BME280;67990;59.826;30.108;2023-06-19T08:03:43;101958.03;;;38.93;12.03
78675;BME280;67990;59.826;30.108;2023-06-19T08:06:10;101959.31;;;39.00;12.53
78675;BME280;67990;59.826;30.108;2023-06-19T08:11:43;101967.13;;;38.31;12.70
78675;BME280;67990;59.826;30.108;2023-06-19T08:16:56;101964.00;;;38.14;12.34
78675;BME280;67990;59.826;30.108;2023-06-19T08:19:41;101962.44;;;37.64;13.63
78675;BME280;67990;59.826;30.108;2023-06-19T08:22:09;101959.97;;;38.01;13.18
78675;BME280;67990;59.826;30.108;2023-06-19T08:24:36;101962.13;;;38.09;13.27
78675;BME280;67990;59.826;30.108;2023-06-19T08:27:25;101957.38;;;37.28;13.32
78675;BME280;67990;59.826;30.108;2023-06-19T08:29:53;101956.47;;;36.79;12.41
78675;BME280;67990;59.826;30.108;2023-06-19T08:32:39;101951.69;;;37.19;13.01
78675;BME280;67990;59.826;30.108;2023-06-19T08:35:07;101957.22;;;37.53;12.92
78675;BME280;67990;59.826;30.108;2023-06-19T08:37:53;101953.13;;;37.94;12.70
78675;BME280;67990;59.826;30.108;2023-06-19T08:40:40;101946.38;;;38.20;12.38
78675;BME280;67990;59.826;30.108;2023-06-19T08:43:27;101955.88;;;37.94;11.92
78675;BME280;67990;59.826;30.108;2023-06-19T08:46:05;101956.97;;;37.59;11.80
78675;BME280;67990;59.826;30.108;2023-06-19T08:48:34;101950.53;;;37.79;12.57
78675;BME280;67990;59.826;30.108;2023-06-19T08:51:02;101944.25;;;37.73;12.22
78675;BME280;67990;59.826;30.108;2023-06-19T08:53:48;101952.84;;;37.62;12.88
78675;BME280;67990;59.826;30.108;2023-06-19T08:56:16;101951.81;;;37.43;12.64
78675;BME280;67990;59.826;30.108;2023-06-19T09:02:13;101957.72;;;37.11;11.81
78675;BME280;67990;59.826;30.108;2023-06-19T09:05:10;101949.09;;;36.34;12.83
78675;BME280;67990;59.826;30.108;2023-06-19T09:07:37;101947.69;;;36.77;12.25
78675;BME280;67990;59.826;30.108;2023-06-19T09:10:13;101944.13;;;36.66;13.13
78675;BME280;67990;59.826;30.108;2023-06-19T09:12:42;101940.56;;;36.81;13.15
78675;BME280;67990;59.826;30.108;2023-06-19T09:15:33;101944.13;;;36.76;12.86
78675;BME280;67990;59.826;30.108;2023-06-19T09:18:45;101931.84;;;36.39;10.64
78675;BME280;67990;59.826;30.108;2023-06-19T09:21:17;101936.50;;;36.18;13.32
78675;BME280;67990;59.826;30.108;2023-06-19T09:24:05;101928.56;;;36.32;12.51
78675;BME280;67990;59.826;30.108;2023-06-19T09:26:34;101922.00;;;35.93;12.74
78675;BME280;67990;59.826;30.108;2023-06-19T09:29:12;101923.56;;;35.54;12.70
78675;BME280;67990;59.826;30.108;2023-06-19T09:31:40;101930.72;;;34.98;12.71
78675;BME280;67990;59.826;30.108;2023-06-19T09:34:45;101920.94;;;35.07;13.85
78675;BME280;67990;59.826;30.108;2023-06-19T09:37:12;101918.00;;;35.24;13.00
78675;BME280;67990;59.826;30.108;2023-06-19T09:39:41;101913.47;;;34.93;12.68
78675;BME280;67990;59.826;30.108;2023-06-19T09:42:12;101906.25;;;34.72;13.67
78675;BME280;67990;59.826;30.108;2023-06-19T09:44:41;101907.66;;;35.36;13.87
78675;BME280;67990;59.826;30.108;2023-06-19T09:47:14;101911.41;;;35.20;13.36
78675;BME280;67990;59.826;30.108;2023-06-19T09:50:04;101898.44;;;34.90;13.83
78675;BME280;67990;59.826;30.108;2023-06-19T09:53:08;101901.91;;;34.76;13.87
78675;BME280;67990;59.826;30.108;2023-06-19T09:55:37;101904.72;;;34.44;12.20
78675;BME280;67990;59.826;30.108;2023-06-19T09:58:06;101909.84;;;33.46;12.28
78675;BME280;67990;59.826;30.108;2023-06-19T10:00:34;101906.75;;;33.37;12.44
78675;BME280;67990;59.826;30.108;2023-06-19T10:06:27;101903.72;;;31.31;16.16
78675;BME280;67990;59.826;30.108;2023-06-19T10:09:05;101898.19;;;31.82;15.72
78675;BME280;67990;59.826;30.108;2023-06-19T10:11:46;101900.03;;;31.37;16.67
78675;BME280;67990;59.826;30.108;2023-06-19T10:14:30;101901.09;;;30.96;16.45
78675;BME280;67990;59.826;30.108;2023-06-19T10:17:16;101900.28;;;30.61;16.18
78675;BME280;67990;59.826;30.108;2023-06-19T10:20:04;101891.75;;;30.00;18.79
78675;BME280;67990;59.826;30.108;2023-06-19T10:22:51;101894.41;;;29.77;19.70
78675;BME280;67990;59.826;30.108;2023-06-19T10:25:21;101893.91;;;29.39;19.82
78675;BME280;67990;59.826;30.108;2023-06-19T10:28:25;101889.78;;;28.82;19.45
78675;BME280;67990;59.826;30.108;2023-06-19T10:30:53;101897.25;;;28.69;21.25
78675;BME280;67990;59.826;30.108;2023-06-19T10:33:23;101884.31;;;28.53;18.81
78675;BME280;67990;59.826;30.108;2023-06-19T10:35:53;101889.56;;;28.23;20.65
78675;BME280;67990;59.826;30.108;2023-06-19T10:41:14;101872.28;;;28.24;20.35
78675;BME280;67990;59.826;30.108;2023-06-19T10:43:52;101883.06;;;27.82;20.83
78675;BME280;67990;59.826;30.108;2023-06-19T10:46:40;101872.28;;;27.69;21.18
78675;BME280;67990;59.826;30.108;2023-06-19T10:49:08;101877.72;;;27.62;21.53
78675;BME280;67990;59.826;30.108;2023-06-19T10:51:39;101870.03;;;27.66;21.92
78675;BME280;67990;59.826;30.108;2023-06-19T10:54:07;101865.13;;;27.56;21.92
78675;BME280;67990;59.826;30.108;2023-06-19T10:56:35;101870.91;;;27.60;22.67
78675;BME280;67990;59.826;30.108;2023-06-19T10:59:21;101863.59;;;27.67;22.07
78675;BME280;67990;59.826;30.108;2023-06-19T11:02:07;101860.44;;;27.39;21.29
78675;BME280;67990;59.826;30.108;2023-06-19T11:04:37;101857.91;;;27.44;21.18
78675;BME280;67990;59.826;30.108;2023-06-19T11:07:07;101851.59;;;26.75;20.65
78675;BME280;67990;59.826;30.108;2023-06-19T11:09:34;101849.47;;;26.83;21.03
78675;BME280;67990;59.826;30.108;2023-06-19T11:12:20;101854.59;;;26.98;21.33
78675;BME280;67990;59.826;30.108;2023-06-19T11:14:48;101851.97;;;26.78;22.04
78675;BME280;67990;59.826;30.108;2023-06-19T11:17:34;101851.13;;;26.78;21.91
78675;BME280;67990;59.826;30.108;2023-06-19T11:22:55;101854.53;;;26.34;21.68
78675;BME280;67990;59.826;30.108;2023-06-19T11:28:12;101847.66;;;26.51;22.88
78675;BME280;67990;59.826;30.108;2023-06-19T11:30:58;101851.63;;;26.68;22.55
78675;BME280;67990;59.826;30.108;2023-06-19T11:36:14;101843.31;;;26.63;22.77
78675;BME280;67990;59.826;30.108;2023-06-19T11:39:00;101845.84;;;26.32;23.58
78675;BME280;67990;59.826;30.108;2023-06-19T11:41:28;101841.75;;;26.10;22.82
78675;BME280;67990;59.826;30.108;2023-06-19T11:44:14;101846.69;;;26.39;23.57
78675;BME280;67990;59.826;30.108;2023-06-19T11:46:42;101835.88;;;26.59;23.11
78675;BME280;67990;59.826;30.108;2023-06-19T11:49:11;101837.56;;;26.27;23.52
78675;BME280;67990;59.826;30.108;2023-06-19T11:51:39;101823.88;;;26.35;23.37
78675;BME280;67990;59.826;30.108;2023-06-19T11:54:09;101831.28;;;26.46;23.94
78675;BME280;67990;59.826;30.108;2023-06-19T11:59:41;101814.16;;;26.21;22.79
78675;BME280;67990;59.826;30.108;2023-06-19T12:02:09;101822.19;;;26.34;23.59
78675;BME280;67990;59.826;30.108;2023-06-19T12:04:54;101816.41;;;26.31;23.55
78675;BME280;67990;59.826;30.108;2023-06-19T12:10:10;101811.88;;;26.05;22.29
78675;BME280;67990;59.826;30.108;2023-06-19T12:12:38;101811.66;;;26.20;22.52
78675;BME280;67990;59.826;30.108;2023-06-19T12:15:06;101815.19;;;26.27;23.00
78675;BME280;67990;59.826;30.108;2023-06-19T12:17:35;101803.56;;;26.26;23.84
78675;BME280;67990;59.826;30.108;2023-06-19T12:20:03;101806.69;;;26.30;22.75
78675;BME280;67990;59.826;30.108;2023-06-19T12:22:33;101798.03;;;25.95;22.96
78675;BME280;67990;59.826;30.108;2023-06-19T12:25:20;101804.84;;;26.11;23.53
78675;BME280;67990;59.826;30.108;2023-06-19T12:28:23;101800.66;;;26.28;23.49
78675;BME280;67990;59.826;30.108;2023-06-19T12:30:52;101797.34;;;26.26;23.26
78675;BME280;67990;59.826;30.108;2023-06-19T12:36:43;101796.78;;;25.98;24.45
78675;BME280;67990;59.826;30.108;2023-06-19T12:39:10;101799.66;;;25.89;24.80
78675;BME280;67990;59.826;30.108;2023-06-19T12:41:57;101799.44;;;25.91;24.02
78675;BME280;67990;59.826;30.108;2023-06-19T12:45:00;101794.28;;;25.96;24.92
78675;BME280;67990;59.826;30.108;2023-06-19T12:47:28;101802.13;;;25.91;25.16
78675;BME280;67990;59.826;30.108;2023-06-19T12:49:55;101794.88;;;25.65;24.35
78675;BME280;67990;59.826;30.108;2023-06-19T12:52:41;101796.31;;;25.74;24.32
78675;BME280;67990;59.826;30.108;2023-06-19T12:55:45;101793.88;;;25.73;24.08
78675;BME280;67990;59.826;30.108;2023-06-19T12:58:14;101794.88;;;25.52;23.23
78675;BME280;67990;59.826;30.108;2023-06-19T13:00:41;101792.38;;;25.44;23.87
78675;BME280;67990;59.826;30.108;2023-06-19T13:03:08;101787.00;;;25.51;24.82
78675;BME280;67990;59.826;30.108;2023-06-19T13:05:55;101783.31;;;25.58;25.34
78675;BME280;67990;59.826;30.108;2023-06-19T13:08:41;101781.63;;;25.64;26.06
78675;BME280;67990;59.826;30.108;2023-06-19T13:11:08;101778.13;;;25.57;23.40
78675;BME280;67990;59.826;30.108;2023-06-19T13:13:55;101765.63;;;25.23;25.07
78675;BME280;67990;59.826;30.108;2023-06-19T13:21:54;101767.25;;;25.11;24.61
78675;BME280;67990;59.826;30.108;2023-06-19T13:24:22;101758.16;;;25.19;25.17
78675;BME280;67990;59.826;30.108;2023-06-19T13:26:49;101758.00;;;25.33;24.71
78675;BME280;67990;59.826;30.108;2023-06-19T13:29:35;101757.78;;;25.35;24.54
78675;BME280;67990;59.826;30.108;2023-06-19T13:32:20;101756.97;;;25.28;23.76
78675;BME280;67990;59.826;30.108;2023-06-19T13:34:49;101758.19;;;25.25;23.24
78675;BME280;67990;59.826;30.108;2023-06-19T13:37:16;101753.44;;;25.27;23.39
78675;BME280;67990;59.826;30.108;2023-06-19T13:39:44;101742.84;;;25.19;24.11
78675;BME280;67990;59.826;30.108;2023-06-19T13:42:12;101745.75;;;25.18;23.18
78675;BME280;67990;59.826;30.108;2023-06-19T13:45:00;101742.50;;;25.29;23.12
78675;BME280;67990;59.826;30.108;2023-06-19T13:47:27;101737.31;;;25.27;23.93
78675;BME280;67990;59.826;30.108;2023-06-19T13:49:54;101735.66;;;25.33;23.31
78675;BME280;67990;59.826;30.108;2023-06-19T13:52:40;101730.09;;;25.34;22.92
78675;BME280;67990;59.826;30.108;2023-06-19T13:55:08;101736.69;;;25.32;23.14
78675;BME280;67990;59.826;30.108;2023-06-19T13:57:53;101740.00;;;25.40;22.91
78675;BME280;67990;59.826;30.108;2023-06-19T14:00:22;101736.72;;;25.45;22.70
78675;BME280;67990;59.826;30.108;2023-06-19T14:03:08;101746.44;;;25.46;22.49
78675;BME280;67990;59.826;30.108;2023-06-19T14:05:35;101735.47;;;25.41;23.27
78675;BME280;67990;59.826;30.108;2023-06-19T14:08:04;101725.06;;;25.25;23.52
78675;BME280;67990;59.826;30.108;2023-06-19T14:10:32;101731.09;;;25.33;23.33
78675;BME280;67990;59.826;30.108;2023-06-19T14:13:17;101725.06;;;25.25;23.16
78675;BME280;67990;59.826;30.108;2023-06-19T14:16:05;101723.19;;;25.19;23.64
78675;BME280;67990;59.826;30.108;2023-06-19T14:18:50;101731.50;;;25.24;24.23
78675;BME280;67990;59.826;30.108;2023-06-19T14:24:04;101718.28;;;25.29;24.52
78675;BME280;67990;59.826;30.108;2023-06-19T14:26:31;101718.03;;;25.24;25.78
78675;BME280;67990;59.826;30.108;2023-06-19T14:29:16;101724.41;;;25.16;25.52
78675;BME280;67990;59.826;30.108;2023-06-19T14:31:46;101711.22;;;25.21;25.96
78675;BME280;67990;59.826;30.108;2023-06-19T14:34:13;101710.56;;;25.19;24.36
78675;BME280;67990;59.826;30.108;2023-06-19T14:36:41;101713.66;;;25.10;24.48
78675;BME280;67990;59.826;30.108;2023-06-19T14:39:08;101714.28;;;25.05;26.38
78675;BME280;67990;59.826;30.108;2023-06-19T14:41:38;101709.31;;;25.02;25.73
78675;BME280;67990;59.826;30.108;2023-06-19T14:44:06;101712.59;;;24.98;25.42
78675;BME280;67990;59.826;30.108;2023-06-19T14:46:34;101705.56;;;24.97;26.85
78675;BME280;67990;59.826;30.108;2023-06-19T14:49:06;101708.91;;;25.05;26.18